Time;durP1;ratioP1;P1;durP2;ratioP2;P2;SDS_P1;SDS_P2;PMS_P1;PMS_P2;Temp;Humidity;BMP_temperature;BMP_pressure;BME280_temperature;BME280_humidity;BME280_pressure;Samples;Min_cycle;Max_cycle;Signal;HPM_P1;HPM_P2
2022/05/19 00:00:22;;;;;;;7.53;6.33;;;;;;;;;;5064767;28;20442;-72
2022/05/19 00:02:50;;;;;;;9.67;6.70;;;;;;;;;;5064614;28;20495;-72
2022/05/19 00:05:17;;;;;;;6.40;5.80;;;;;;;;;;5056195;28;21029;-72
2022/05/19 00:07:45;;;;;;;7.53;6.83;;;;;;;;;;5072694;28;20730;-72
2022/05/19 00:10:17;;;;;;;7.80;7.03;;;;;;;;;;5067781;28;20445;-72
2022/05/19 00:12:45;;;;;;;8.97;6.03;;;;;;;;;;5061769;28;20542;-71
2022/05/19 00:15:14;;;;;;;6.87;6.23;;;;;;;;;;5076125;28;20845;-71
2022/05/19 00:17:42;;;;;;;7.33;5.77;;;;;;;;;;5067744;28;20518;-72
2022/05/19 00:20:11;;;;;;;8.63;6.30;;;;;;;;;;5072377;28;20523;-72
2022/05/19 00:22:39;;;;;;;7.60;6.87;;;;;;;;;;5056774;28;20466;-72
2022/05/19 00:25:07;;;;;;;11.00;6.50;;;;;;;;;;5064286;28;20463;-73
2022/05/19 00:27:34;;;;;;;8.60;5.80;;;;;;;;;;5064472;28;20453;-72
2022/05/19 00:30:02;;;;;;;7.53;6.53;;;;;;;;;;5064441;28;20461;-72
2022/05/19 00:32:31;;;;;;;9.23;5.90;;;;;;;;;;5064410;28;20488;-72
2022/05/19 00:34:59;;;;;;;12.03;6.50;;;;;;;;;;5056582;28;20457;-72
2022/05/19 00:37:26;;;;;;;8.30;6.70;;;;;;;;;;5060722;28;20876;-72
2022/05/19 00:39:54;;;;;;;8.33;6.37;;;;;;;;;;5059494;28;20793;-71
2022/05/19 00:45:08;;;;;;;10.80;6.37;;;;;;;;;;5072187;28;20432;-72
2022/05/19 00:47:38;;;;;;;10.57;6.50;;;;;;;;;;5055381;28;20528;-72
2022/05/19 00:50:08;;;;;;;8.27;6.97;;;;;;;;;;5072743;28;20853;-72
2022/05/19 00:52:39;;;;;;;7.20;6.30;;;;;;;;;;5063996;28;20476;-73
2022/05/19 00:55:14;;;;;;;6.20;5.60;;;;;;;;;;5056722;28;20458;-71
2022/05/19 00:57:43;;;;;;;8.00;5.77;;;;;;;;;;5056388;28;20468;-72
2022/05/19 01:00:12;;;;;;;7.53;5.80;;;;;;;;;;5072655;28;20460;-73
2022/05/19 01:02:43;;;;;;;9.27;6.63;;;;;;;;;;5064089;28;20460;-72
2022/05/19 01:05:12;;;;;;;11.00;7.27;;;;;;;;;;5063968;28;20491;-72
2022/05/19 01:07:56;;;;;;;7.53;6.30;;;;;;;;;;5055366;28;20518;-71
2022/05/19 01:10:24;;;;;;;7.43;5.63;;;;;;;;;;5057645;28;20945;-71
2022/05/19 01:12:52;;;;;;;6.70;6.00;;;;;;;;;;5070277;28;20461;-72
2022/05/19 01:15:20;;;;;;;6.70;5.80;;;;;;;;;;5056702;28;20457;-72
2022/05/19 01:17:50;;;;;;;10.50;7.10;;;;;;;;;;5070596;28;20508;-72
2022/05/19 01:20:19;;;;;;;7.13;6.43;;;;;;;;;;5055769;28;20503;-71
2022/05/19 01:22:52;;;;;;;7.23;5.90;;;;;;;;;;5055969;28;20813;-72
2022/05/19 01:25:24;;;;;;;8.67;6.57;;;;;;;;;;5056215;28;20471;-71
2022/05/19 01:27:53;;;;;;;8.17;6.00;;;;;;;;;;5070838;28;20460;-71
2022/05/19 01:30:21;;;;;;;7.20;6.33;;;;;;;;;;5057199;28;20842;-72
2022/05/19 01:32:48;;;;;;;6.07;5.47;;;;;;;;;;5067849;28;20718;-72
2022/05/19 01:35:16;;;;;;;8.50;6.23;;;;;;;;;;5059386;28;20499;-72
2022/05/19 01:37:44;;;;;;;7.23;6.30;;;;;;;;;;5058606;28;20742;-69
2022/05/19 01:40:16;;;;;;;8.30;6.27;;;;;;;;;;5059968;28;20807;-71
2022/05/19 01:42:49;;;;;;;8.10;6.87;;;;;;;;;;5071861;28;21010;-72
2022/05/19 01:45:27;;;;;;;10.13;6.90;;;;;;;;;;5055725;28;20955;-72
2022/05/19 01:47:57;;;;;;;11.03;7.13;;;;;;;;;;5055415;28;20523;-72
2022/05/19 01:50:29;;;;;;;6.87;6.17;;;;;;;;;;5055927;28;20461;-71
2022/05/19 01:53:05;;;;;;;9.30;6.53;;;;;;;;;;5055679;28;20457;-72
2022/05/19 01:55:36;;;;;;;10.67;6.40;;;;;;;;;;5055198;28;20813;-72
2022/05/19 01:58:10;;;;;;;6.50;5.80;;;;;;;;;;5055281;28;20461;-73
2022/05/19 02:00:43;;;;;;;6.90;6.07;;;;;;;;;;5060482;28;20459;-72
2022/05/19 02:03:16;;;;;;;10.37;6.37;;;;;;;;;;5066468;28;20491;-72
2022/05/19 02:05:50;;;;;;;9.00;6.70;;;;;;;;;;5065770;28;20441;-73
2022/05/19 02:08:20;;;;;;;9.50;6.90;;;;;;;;;;5055085;28;20882;-72
2022/05/19 02:10:50;;;;;;;8.47;6.83;;;;;;;;;;5072537;28;20464;-72
2022/05/19 02:13:19;;;;;;;9.90;6.70;;;;;;;;;;5061471;28;20453;-72
2022/05/19 02:15:50;;;;;;;8.63;7.00;;;;;;;;;;5057693;28;20453;-72
2022/05/19 02:18:24;;;;;;;8.70;6.40;;;;;;;;;;5071982;28;20467;-71
2022/05/19 02:20:53;;;;;;;7.70;6.90;;;;;;;;;;5068835;28;20449;-72
2022/05/19 02:23:21;;;;;;;7.13;6.20;;;;;;;;;;5058925;28;20465;-73
2022/05/19 02:25:49;;;;;;;7.27;6.07;;;;;;;;;;5067450;28;20507;-71
2022/05/19 02:28:19;;;;;;;8.37;6.30;;;;;;;;;;5059874;28;20465;-72
2022/05/19 02:30:48;;;;;;;9.50;6.70;;;;;;;;;;5058730;28;20468;-72
2022/05/19 02:33:16;;;;;;;8.50;6.90;;;;;;;;;;5059465;28;20465;-71
2022/05/19 02:35:45;;;;;;;8.50;7.57;;;;;;;;;;5073915;28;20449;-72
2022/05/19 02:38:13;;;;;;;7.20;6.23;;;;;;;;;;5075399;28;20456;-72
2022/05/19 02:40:41;;;;;;;8.10;6.17;;;;;;;;;;5058988;28;20946;-72
2022/05/19 02:43:09;;;;;;;7.20;6.50;;;;;;;;;;5060071;28;20560;-73
2022/05/19 02:45:37;;;;;;;7.63;6.87;;;;;;;;;;5073110;28;20468;-72
2022/05/19 02:48:06;;;;;;;10.53;7.10;;;;;;;;;;5058033;28;20454;-72
2022/05/19 02:50:34;;;;;;;7.20;6.40;;;;;;;;;;5069361;28;20473;-72
2022/05/19 02:53:03;;;;;;;9.97;6.73;;;;;;;;;;5075899;28;20467;-72
2022/05/19 02:55:30;;;;;;;6.97;6.33;;;;;;;;;;5073821;28;20476;-71
2022/05/19 02:57:58;;;;;;;7.60;6.80;;;;;;;;;;5058209;28;20457;-72
2022/05/19 03:00:26;;;;;;;10.93;6.57;;;;;;;;;;5058854;28;20511;-71
2022/05/19 03:02:55;;;;;;;7.77;6.57;;;;;;;;;;5058161;28;20806;-72
2022/05/19 03:05:25;;;;;;;9.00;6.37;;;;;;;;;;5066851;28;20507;-72
2022/05/19 03:07:53;;;;;;;7.40;6.70;;;;;;;;;;5058506;28;20540;-71
2022/05/19 03:10:21;;;;;;;7.50;6.80;;;;;;;;;;5058034;28;20477;-71
2022/05/19 03:12:49;;;;;;;10.53;6.97;;;;;;;;;;5071000;28;20526;-71
2022/05/19 03:15:16;;;;;;;7.77;6.50;;;;;;;;;;5060915;28;20480;-71
2022/05/19 03:17:47;;;;;;;6.87;6.17;;;;;;;;;;5061945;28;20445;-71
2022/05/19 03:20:15;;;;;;;7.57;6.67;;;;;;;;;;5076463;28;20896;-71
2022/05/19 03:22:44;;;;;;;7.57;6.73;;;;;;;;;;5065706;28;20458;-72
2022/05/19 03:25:18;;;;;;;8.40;6.63;;;;;;;;;;5057447;28;20488;-71
2022/05/19 03:27:48;;;;;;;7.57;6.30;;;;;;;;;;5060623;28;20452;-71
2022/05/19 03:30:17;;;;;;;11.00;7.00;;;;;;;;;;5061041;28;20485;-70
2022/05/19 03:32:44;;;;;;;7.20;6.30;;;;;;;;;;5066131;28;20445;-72
2022/05/19 03:35:12;;;;;;;7.70;6.70;;;;;;;;;;5057991;28;20488;-72
2022/05/19 03:37:40;;;;;;;8.90;6.40;;;;;;;;;;5057546;28;20800;-72
2022/05/19 03:40:11;;;;;;;8.47;7.57;;;;;;;;;;5067266;28;20896;-72
2022/05/19 03:42:38;;;;;;;7.17;6.20;;;;;;;;;;5077035;28;20866;-72
2022/05/19 03:45:06;;;;;;;8.70;7.87;;;;;;;;;;5056984;28;20488;-72
2022/05/19 03:47:34;;;;;;;8.00;6.27;;;;;;;;;;5067526;28;20461;-72
2022/05/19 03:50:01;;;;;;;7.33;6.60;;;;;;;;;;5068687;28;20542;-72
2022/05/19 03:52:29;;;;;;;14.00;6.80;;;;;;;;;;5056943;28;20889;-72
2022/05/19 03:54:57;;;;;;;8.17;7.10;;;;;;;;;;5062629;28;20519;-72
2022/05/19 03:57:29;;;;;;;9.83;7.07;;;;;;;;;;5070521;28;20465;-72
2022/05/19 03:59:57;;;;;;;9.07;7.17;;;;;;;;;;5063979;28;20442;-72
2022/05/19 04:02:25;;;;;;;7.87;7.07;;;;;;;;;;5065998;28;20533;-70
2022/05/19 04:04:58;;;;;;;8.83;7.70;;;;;;;;;;5066190;28;20463;-70
2022/05/19 04:07:34;;;;;;;8.93;7.03;;;;;;;;;;5075316;28;20445;-71
2022/05/19 04:10:08;;;;;;;11.50;7.27;;;;;;;;;;5057290;28;20507;-71
2022/05/19 04:12:38;;;;;;;11.97;7.50;;;;;;;;;;5072559;28;20453;-70
2022/05/19 04:15:06;;;;;;;7.43;6.73;;;;;;;;;;5066176;28;20461;-71
2022/05/19 04:17:34;;;;;;;9.33;6.47;;;;;;;;;;5056134;28;20441;-72
2022/05/19 04:20:02;;;;;;;8.70;7.30;;;;;;;;;;5078495;28;20452;-72
2022/05/19 04:22:29;;;;;;;13.70;7.40;;;;;;;;;;5056710;28;20525;-72
2022/05/19 04:25:00;;;;;;;9.03;7.20;;;;;;;;;;5062546;28;20552;-72
2022/05/19 04:27:28;;;;;;;8.53;6.30;;;;;;;;;;5056464;28;20455;-72
2022/05/19 04:29:57;;;;;;;10.33;7.17;;;;;;;;;;5056477;28;20493;-72
2022/05/19 04:32:25;;;;;;;8.23;7.33;;;;;;;;;;5065291;28;20453;-71
2022/05/19 04:34:57;;;;;;;8.10;7.30;;;;;;;;;;5075449;28;20465;-71
2022/05/19 04:37:28;;;;;;;8.97;7.97;;;;;;;;;;5061615;28;20441;-72
2022/05/19 04:39:56;;;;;;;9.20;6.77;;;;;;;;;;5060373;28;20556;-72
2022/05/19 04:42:23;;;;;;;12.03;7.87;;;;;;;;;;5058169;28;20449;-72
2022/05/19 04:44:51;;;;;;;12.60;7.23;;;;;;;;;;5058842;28;20460;-72
2022/05/19 04:47:20;;;;;;;12.60;6.80;;;;;;;;;;5059677;28;20862;-72
2022/05/19 04:49:57;;;;;;;8.80;8.00;;;;;;;;;;5062069;28;20496;-70
2022/05/19 04:52:50;;;;;;;8.63;7.73;;;;;;;;;;5070879;28;20464;-72
2022/05/19 04:55:18;;;;;;;9.90;8.60;;;;;;;;;;5061616;28;20469;-72
2022/05/19 04:57:46;;;;;;;11.53;7.30;;;;;;;;;;5072352;28;20449;-72
2022/05/19 05:00:17;;;;;;;10.77;7.60;;;;;;;;;;5056425;28;20495;-71
2022/05/19 05:03:07;;;;;;;8.20;7.40;;;;;;;;;;5070594;28;20468;-72
2022/05/19 05:08:59;;;;;;;9.70;7.53;;;;;;;;;;5002150;28;20439;-71
2022/05/19 05:11:27;;;;;;;8.07;6.43;;;;;;;;;;5010721;28;20452;-72
2022/05/19 05:14:08;;;;;;;13.90;7.33;;;;;;;;;;5027013;28;20591;-72
2022/05/19 05:16:36;;;;;;;7.50;6.80;;;;;;;;;;5061748;28;20728;-72
2022/05/19 05:19:06;;;;;;;7.40;6.70;;;;;;;;;;5056265;28;20492;-72
2022/05/19 05:21:38;;;;;;;6.70;6.00;;;;;;;;;;5058852;28;20469;-71
2022/05/19 05:24:08;;;;;;;7.60;6.73;;;;;;;;;;5053761;28;20479;-71
2022/05/19 05:26:36;;;;;;;8.63;6.30;;;;;;;;;;5053165;28;20449;-70
2022/05/19 05:29:03;;;;;;;7.53;6.57;;;;;;;;;;5064323;28;20480;-71
2022/05/19 05:31:31;;;;;;;7.77;6.17;;;;;;;;;;5070744;28;20467;-71
2022/05/19 05:34:00;;;;;;;8.20;6.43;;;;;;;;;;5062300;28;20554;-72
2022/05/19 05:36:29;;;;;;;10.33;7.00;;;;;;;;;;5065322;28;20540;-72
2022/05/19 05:39:00;;;;;;;10.10;5.73;;;;;;;;;;5068662;28;20468;-72
2022/05/19 05:41:29;;;;;;;8.77;6.87;;;;;;;;;;5060074;28;20904;-72
2022/05/19 05:44:01;;;;;;;8.93;6.17;;;;;;;;;;5052642;28;20804;-72
2022/05/19 05:46:31;;;;;;;6.30;5.50;;;;;;;;;;5064363;28;21191;-72
2022/05/19 05:51:57;;;;;;;6.70;5.80;;;;;;;;;;5060288;28;20475;-72
2022/05/19 05:54:24;;;;;;;9.67;5.90;;;;;;;;;;5060599;28;20506;-72
2022/05/19 05:56:54;;;;;;;6.10;5.50;;;;;;;;;;5074584;28;20478;-73
2022/05/19 05:59:21;;;;;;;6.10;5.50;;;;;;;;;;5057393;28;20453;-73
2022/05/19 06:01:49;;;;;;;8.67;6.00;;;;;;;;;;5057006;28;20869;-72
2022/05/19 06:04:23;;;;;;;8.47;6.53;;;;;;;;;;5062880;28;20452;-73
2022/05/19 06:06:51;;;;;;;8.27;5.93;;;;;;;;;;5065418;28;20445;-73
2022/05/19 06:09:22;;;;;;;7.60;5.67;;;;;;;;;;5071584;28;20460;-72
2022/05/19 06:11:52;;;;;;;6.60;4.67;;;;;;;;;;5062005;28;20461;-73
2022/05/19 06:14:20;;;;;;;7.57;5.40;;;;;;;;;;5074493;28;20868;-72
2022/05/19 06:16:49;;;;;;;6.07;5.47;;;;;;;;;;5060669;28;20919;-73
2022/05/19 06:19:18;;;;;;;6.40;5.63;;;;;;;;;;5073855;28;20463;-73
2022/05/19 06:21:46;;;;;;;7.47;5.20;;;;;;;;;;5062565;28;20540;-73
2022/05/19 06:24:14;;;;;;;6.33;5.73;;;;;;;;;;5056936;28;20484;-73
2022/05/19 06:26:44;;;;;;;5.80;5.20;;;;;;;;;;5069256;28;20741;-73
2022/05/19 06:29:12;;;;;;;7.90;5.97;;;;;;;;;;5068063;28;20880;-72
2022/05/19 06:31:40;;;;;;;7.63;4.97;;;;;;;;;;5073016;28;20572;-72
2022/05/19 06:34:10;;;;;;;6.13;5.53;;;;;;;;;;5065714;28;20947;-72
2022/05/19 06:36:42;;;;;;;9.13;5.57;;;;;;;;;;5073460;28;20920;-73
2022/05/19 06:39:14;;;;;;;7.43;4.77;;;;;;;;;;5076307;28;20507;-73
2022/05/19 06:42:04;;;;;;;6.63;4.83;;;;;;;;;;5073295;28;20441;-72
2022/05/19 06:44:33;;;;;;;6.57;4.27;;;;;;;;;;5068197;28;20457;-72
2022/05/19 06:47:01;;;;;;;4.97;4.47;;;;;;;;;;5069216;28;20721;-71
2022/05/19 06:49:31;;;;;;;5.30;4.47;;;;;;;;;;5063740;28;20485;-72
2022/05/19 06:51:59;;;;;;;6.00;4.70;;;;;;;;;;5059902;28;20765;-71
2022/05/19 06:54:34;;;;;;;6.90;6.20;;;;;;;;;;5057311;28;20474;-72
2022/05/19 06:57:03;;;;;;;8.00;5.73;;;;;;;;;;5069870;28;20517;-72
2022/05/19 06:59:31;;;;;;;44.80;18.87;;;;;;;;;;5071716;28;20456;-72
2022/05/19 07:02:03;;;;;;;9.73;6.93;;;;;;;;;;5062537;28;20461;-72
2022/05/19 07:04:36;;;;;;;11.17;8.00;;;;;;;;;;5066243;28;20453;-72
2022/05/19 07:07:05;;;;;;;6.77;5.03;;;;;;;;;;5071345;28;20635;-72
2022/05/19 07:09:33;;;;;;;6.80;4.87;;;;;;;;;;5072461;28;20472;-72
2022/05/19 07:12:04;;;;;;;5.87;4.00;;;;;;;;;;5071375;28;20836;-72
2022/05/19 07:14:32;;;;;;;4.60;4.10;;;;;;;;;;5059974;28;20587;-73
2022/05/19 07:17:00;;;;;;;3.77;3.17;;;;;;;;;;5057496;28;20576;-72
2022/05/19 07:22:19;;;;;;;5.70;4.60;;;;;;;;;;5059361;28;20586;-72
2022/05/19 07:24:47;;;;;;;5.53;3.67;;;;;;;;;;5067372;28;20456;-72
2022/05/19 07:27:24;;;;;;;5.47;3.63;;;;;;;;;;5066488;28;20453;-72
2022/05/19 07:29:53;;;;;;;5.23;4.30;;;;;;;;;;5065241;28;20454;-73
2022/05/19 07:32:20;;;;;;;5.83;4.30;;;;;;;;;;5063479;28;20519;-72
2022/05/19 07:34:49;;;;;;;6.63;4.03;;;;;;;;;;5054971;28;20476;-71
2022/05/19 07:37:21;;;;;;;5.67;4.20;;;;;;;;;;5068771;28;20571;-70
2022/05/19 07:39:51;;;;;;;5.00;4.30;;;;;;;;;;5070148;28;20536;-74
2022/05/19 07:42:25;;;;;;;5.90;4.00;;;;;;;;;;5059272;28;20532;-72
2022/05/19 07:44:54;;;;;;;4.07;3.67;;;;;;;;;;5061907;28;20832;-72
2022/05/19 07:47:22;;;;;;;5.07;4.13;;;;;;;;;;5068400;28;20449;-71
2022/05/19 07:49:54;;;;;;;9.80;3.70;;;;;;;;;;5054242;28;20481;-71
2022/05/19 07:52:22;;;;;;;4.27;3.47;;;;;;;;;;5063459;28;20460;-71
2022/05/19 07:54:50;;;;;;;7.30;4.97;;;;;;;;;;5063865;28;20472;-71
2022/05/19 07:57:22;;;;;;;5.40;3.43;;;;;;;;;;5054867;28;20460;-71
2022/05/19 07:59:51;;;;;;;5.73;4.07;;;;;;;;;;5063167;28;20458;-71
2022/05/19 08:02:19;;;;;;;5.70;3.70;;;;;;;;;;5063192;28;20843;-71
2022/05/19 08:04:47;;;;;;;4.70;2.90;;;;;;;;;;5054829;28;20881;-72
2022/05/19 08:07:16;;;;;;;6.60;3.00;;;;;;;;;;5055836;28;20846;-72
2022/05/19 08:15:36;;;;;;;3.70;3.40;;;;;;;;;;5065734;28;20444;-72
2022/05/19 08:18:05;;;;;;;4.77;2.87;;;;;;;;;;5063840;28;20476;-72
2022/05/19 08:20:33;;;;;;;5.27;3.47;;;;;;;;;;5072692;28;20453;-72
2022/05/19 08:23:01;;;;;;;7.23;3.60;;;;;;;;;;5060545;28;20496;-73
2022/05/19 08:25:29;;;;;;;5.13;3.10;;;;;;;;;;5067982;28;21070;-70
2022/05/19 08:27:59;;;;;;;3.80;3.10;;;;;;;;;;5055209;28;20905;-72
2022/05/19 08:30:29;;;;;;;5.30;3.50;;;;;;;;;;5056325;28;20515;-71
2022/05/19 08:33:00;;;;;;;4.20;2.80;;;;;;;;;;5060902;28;20464;-71
2022/05/19 08:35:32;;;;;;;4.90;3.10;;;;;;;;;;5063346;28;20465;-71
2022/05/19 08:38:04;;;;;;;4.60;4.00;;;;;;;;;;5054279;28;20530;-71
2022/05/19 08:40:35;;;;;;;4.70;3.73;;;;;;;;;;5064260;28;20472;-71
2022/05/19 08:43:07;;;;;;;6.70;3.77;;;;;;;;;;5061727;28;20493;-72
2022/05/19 08:45:37;;;;;;;5.00;3.30;;;;;;;;;;5073707;28;20471;-72
2022/05/19 08:48:06;;;;;;;6.30;3.10;;;;;;;;;;5073390;28;20449;-72
2022/05/19 08:50:42;;;;;;;6.47;4.40;;;;;;;;;;5062221;28;20583;-72
2022/05/19 08:53:13;;;;;;;4.97;3.60;;;;;;;;;;5058427;28;20463;-73
2022/05/19 08:55:47;;;;;;;4.60;3.37;;;;;;;;;;5061881;28;20461;-71
2022/05/19 08:58:35;;;;;;;4.57;3.57;;;;;;;;;;5063241;28;20475;-72
2022/05/19 09:01:13;;;;;;;5.60;3.63;;;;;;;;;;5058874;28;20850;-72
2022/05/19 09:03:47;;;;;;;4.20;3.00;;;;;;;;;;5056008;28;20452;-71
2022/05/19 09:06:18;;;;;;;3.87;2.80;;;;;;;;;;5063194;28;20512;-71
2022/05/19 09:09:24;;;;;;;5.50;4.33;;;;;;;;;;5059673;28;20548;-73
2022/05/19 09:11:58;;;;;;;5.90;3.40;;;;;;;;;;5059869;28;20555;-71
2022/05/19 09:14:46;;;;;;;4.17;3.47;;;;;;;;;;5063225;28;20593;-72
2022/05/19 09:17:18;;;;;;;5.40;3.40;;;;;;;;;;5060199;28;20464;-72
2022/05/19 09:19:52;;;;;;;5.67;4.10;;;;;;;;;;5055728;28;20454;-72
2022/05/19 09:22:24;;;;;;;8.67;3.90;;;;;;;;;;5064227;28;20448;-72
2022/05/19 09:24:52;;;;;;;5.63;3.43;;;;;;;;;;5067450;28;20457;-71
2022/05/19 09:27:22;;;;;;;5.77;4.10;;;;;;;;;;5054873;28;20727;-72
2022/05/19 09:29:52;;;;;;;6.00;3.50;;;;;;;;;;5070946;28;20514;-72
2022/05/19 09:32:22;;;;;;;6.70;3.93;;;;;;;;;;5054718;28;20490;-72
2022/05/19 09:34:55;;;;;;;7.97;5.10;;;;;;;;;;5056243;28;20874;-73
2022/05/19 09:37:35;;;;;;;6.77;4.17;;;;;;;;;;5058794;28;20825;-72
2022/05/19 09:40:12;;;;;;;4.53;3.47;;;;;;;;;;5072672;28;20483;-71
2022/05/19 09:42:54;;;;;;;6.07;3.50;;;;;;;;;;5054358;28;20484;-72
2022/05/19 09:45:29;;;;;;;8.00;3.90;;;;;;;;;;5069689;28;20460;-72
2022/05/19 09:48:00;;;;;;;8.37;3.30;;;;;;;;;;5056957;28;20475;-71
2022/05/19 09:50:36;;;;;;;4.73;3.87;;;;;;;;;;5064931;28;20453;-72
2022/05/19 09:53:11;;;;;;;5.70;3.50;;;;;;;;;;5058631;28;20453;-72
2022/05/19 09:56:08;;;;;;;5.40;3.17;;;;;;;;;;5064136;28;20738;-71
2022/05/19 09:58:39;;;;;;;8.70;3.73;;;;;;;;;;5062347;28;20454;-72
2022/05/19 10:01:10;;;;;;;5.10;2.70;;;;;;;;;;5065535;28;20454;-72
2022/05/19 10:03:50;;;;;;;6.60;3.10;;;;;;;;;;5053324;28;20461;-70
2022/05/19 10:06:20;;;;;;;4.27;2.73;;;;;;;;;;5053983;28;20453;-71
2022/05/19 10:08:49;;;;;;;5.43;3.37;;;;;;;;;;5053163;28;20846;-72
2022/05/19 10:11:24;;;;;;;3.53;3.03;;;;;;;;;;5053361;28;20551;-70
2022/05/19 10:13:57;;;;;;;4.33;2.70;;;;;;;;;;5053117;28;20465;-71
2022/05/19 10:16:35;;;;;;;9.10;3.60;;;;;;;;;;5063564;28;20468;-72
2022/05/19 10:19:18;;;;;;;4.40;3.33;;;;;;;;;;5069219;28;20464;-71
2022/05/19 10:22:11;;;;;;;3.60;2.90;;;;;;;;;;5056060;28;20458;-72
2022/05/19 10:24:49;;;;;;;5.30;3.37;;;;;;;;;;5056234;28;20461;-72
2022/05/19 10:33:16;;;;;;;4.00;2.23;;;;;;;;;;5066273;28;20490;-71
2022/05/19 10:35:54;;;;;;;5.80;2.40;;;;;;;;;;5061489;28;21004;-72
2022/05/19 10:38:37;;;;;;;4.20;3.50;;;;;;;;;;5064629;28;20452;-71
2022/05/19 10:41:15;;;;;;;4.60;3.40;;;;;;;;;;5063432;28;20464;-72
2022/05/19 10:43:51;;;;;;;6.60;4.20;;;;;;;;;;5069575;28;20456;-73
2022/05/19 10:46:22;;;;;;;3.50;2.67;;;;;;;;;;5063448;28;20472;-72
2022/05/19 10:49:14;;;;;;;4.60;2.67;;;;;;;;;;5063637;28;20526;-71
2022/05/19 10:51:52;;;;;;;6.90;3.10;;;;;;;;;;5062477;28;20495;-72
2022/05/19 10:54:25;;;;;;;5.17;3.00;;;;;;;;;;5064510;28;21129;-73
2022/05/19 10:57:16;;;;;;;3.93;3.03;;;;;;;;;;5062409;28;20458;-73
2022/05/19 11:00:01;;;;;;;3.23;2.70;;;;;;;;;;5059738;28;20480;-71
2022/05/19 11:02:37;;;;;;;6.20;3.60;;;;;;;;;;5066332;28;20527;-74
2022/05/19 11:05:22;;;;;;;4.60;3.00;;;;;;;;;;5065856;28;20467;-72
2022/05/19 11:07:58;;;;;;;4.60;2.87;;;;;;;;;;5060717;28;20461;-72
2022/05/19 11:10:34;;;;;;;5.87;2.97;;;;;;;;;;5070877;28;20441;-72
2022/05/19 11:13:06;;;;;;;4.00;2.97;;;;;;;;;;5064441;28;20484;-71
2022/05/19 11:15:38;;;;;;;6.00;3.60;;;;;;;;;;5062358;28;20468;-72
2022/05/19 11:18:12;;;;;;;5.40;2.80;;;;;;;;;;5061827;28;20774;-73
2022/05/19 11:20:46;;;;;;;5.33;2.50;;;;;;;;;;5059411;28;20450;-71
2022/05/19 11:23:20;;;;;;;5.43;3.00;;;;;;;;;;5059584;28;20449;-73
2022/05/19 11:28:43;;;;;;;6.63;3.80;;;;;;;;;;5069119;28;20443;-72
2022/05/19 11:31:13;;;;;;;7.33;3.30;;;;;;;;;;5068817;28;20437;-72
2022/05/19 11:33:42;;;;;;;5.60;4.43;;;;;;;;;;5060890;28;20449;-71
2022/05/19 11:36:16;;;;;;;4.13;2.93;;;;;;;;;;5056532;28;20919;-70
2022/05/19 11:38:48;;;;;;;5.90;3.20;;;;;;;;;;5043739;28;20864;-71
2022/05/19 11:41:19;;;;;;;3.10;2.43;;;;;;;;;;5060883;28;20522;-72
2022/05/19 11:43:48;;;;;;;4.07;2.97;;;;;;;;;;5071506;28;20523;-73
2022/05/19 11:46:19;;;;;;;7.30;2.83;;;;;;;;;;5066392;28;21015;-74
2022/05/19 11:57:27;;;;;;;5.23;3.20;;;;;;;;;;5063888;28;20493;-74
2022/05/19 11:59:56;;;;;;;4.10;3.20;;;;;;;;;;5060157;28;20448;-74
2022/05/19 12:02:28;;;;;;;6.23;2.63;;;;;;;;;;5057955;28;20436;-74
2022/05/19 12:05:00;;;;;;;3.53;3.07;;;;;;;;;;5060456;28;20449;-70
2022/05/19 12:07:40;;;;;;;4.83;2.77;;;;;;;;;;5060579;28;20446;-70
2022/05/19 12:10:11;;;;;;;8.63;3.27;;;;;;;;;;5061824;28;20453;-71
2022/05/19 12:12:41;;;;;;;5.13;2.83;;;;;;;;;;5060756;28;20572;-71
2022/05/19 12:15:21;;;;;;;5.97;3.20;;;;;;;;;;5065539;28;20467;-72
2022/05/19 12:17:54;;;;;;;5.67;2.77;;;;;;;;;;5065924;28;21062;-73
2022/05/19 12:20:40;;;;;;;8.50;5.80;;;;;;;;;;5061938;28;20486;-72
2022/05/19 12:23:25;;;;;;;14.43;4.80;;;;;;;;;;5055312;28;21520;-73
2022/05/19 12:25:54;;;;;;;3.90;2.83;;;;;;;;;;5057573;28;20511;-73
2022/05/19 12:28:33;;;;;;;3.57;2.67;;;;;;;;;;5055809;28;21112;-74
2022/05/19 12:33:52;;;;;;;6.10;3.87;;;;;;;;;;5063674;28;20424;-73
2022/05/19 12:36:29;;;;;;;5.50;2.93;;;;;;;;;;5062976;28;20453;-71
2022/05/19 12:39:12;;;;;;;4.57;3.13;;;;;;;;;;5061468;28;20448;-71
2022/05/19 12:41:54;;;;;;;7.00;2.73;;;;;;;;;;5052644;28;20740;-72
2022/05/19 12:44:33;;;;;;;4.53;2.17;;;;;;;;;;5062886;28;20868;-73
2022/05/19 12:47:06;;;;;;;3.90;2.83;;;;;;;;;;5068041;28;21415;-73
2022/05/19 12:49:41;;;;;;;5.60;3.17;;;;;;;;;;5060026;28;20478;-71
2022/05/19 12:52:16;;;;;;;4.17;3.00;;;;;;;;;;5065267;28;20910;-70
2022/05/19 12:54:53;;;;;;;4.23;2.90;;;;;;;;;;5054187;28;20825;-70
2022/05/19 12:57:27;;;;;;;3.90;3.23;;;;;;;;;;5067622;28;20549;-71
2022/05/19 13:00:10;;;;;;;7.17;4.00;;;;;;;;;;5063038;28;20503;-71
2022/05/19 13:02:41;;;;;;;5.73;4.60;;;;;;;;;;5048004;28;20517;-70
2022/05/19 13:05:14;;;;;;;3.20;2.77;;;;;;;;;;5062191;28;20478;-71
2022/05/19 13:07:44;;;;;;;4.10;2.90;;;;;;;;;;5059256;28;20526;-70
2022/05/19 13:10:17;;;;;;;3.43;2.97;;;;;;;;;;5053445;28;20461;-71
2022/05/19 13:12:50;;;;;;;4.00;3.57;;;;;;;;;;5066236;28;20453;-71
2022/05/19 13:15:27;;;;;;;8.43;3.03;;;;;;;;;;5061241;28;20640;-70
2022/05/19 13:17:55;;;;;;;6.50;3.00;;;;;;;;;;5060461;28;20535;-72
2022/05/19 13:20:33;;;;;;;5.60;3.30;;;;;;;;;;5068321;28;20452;-71
2022/05/19 13:23:03;;;;;;;5.13;2.47;;;;;;;;;;5064768;28;20502;-73
2022/05/19 13:25:37;;;;;;;3.10;2.40;;;;;;;;;;5060814;28;20755;-71
2022/05/19 13:30:54;;;;;;;5.43;2.60;;;;;;;;;;5063245;28;20443;-72
2022/05/19 13:33:31;;;;;;;6.17;2.60;;;;;;;;;;5061639;28;20467;-71
2022/05/19 13:36:00;;;;;;;2.70;2.23;;;;;;;;;;5062924;28;20468;-72
2022/05/19 13:38:29;;;;;;;3.47;2.57;;;;;;;;;;5058198;28;20449;-72
2022/05/19 13:40:57;;;;;;;3.23;2.40;;;;;;;;;;5061444;28;20534;-72
2022/05/19 13:43:35;;;;;;;3.77;3.30;;;;;;;;;;5068219;28;20581;-70
2022/05/19 13:46:06;;;;;;;7.10;3.70;;;;;;;;;;5058645;28;20759;-74
2022/05/19 13:48:53;;;;;;;3.30;2.80;;;;;;;;;;5065283;28;20480;-71
2022/05/19 13:51:22;;;;;;;3.90;2.60;;;;;;;;;;5051270;28;20990;-71
2022/05/19 13:53:55;;;;;;;5.73;2.83;;;;;;;;;;5067526;28;20535;-72
2022/05/19 13:56:40;;;;;;;5.13;2.63;;;;;;;;;;5052845;28;20453;-74
2022/05/19 13:59:19;;;;;;;2.97;2.37;;;;;;;;;;5055424;28;20945;-74
2022/05/19 14:01:49;;;;;;;3.90;2.60;;;;;;;;;;5060530;28;20487;-73
2022/05/19 14:04:23;;;;;;;4.40;2.43;;;;;;;;;;5058093;28;20916;-73
2022/05/19 14:06:51;;;;;;;10.27;2.60;;;;;;;;;;5059225;28;20786;-73
2022/05/19 14:09:25;;;;;;;4.83;2.70;;;;;;;;;;5058799;28;20449;-72
2022/05/19 14:12:09;;;;;;;3.37;2.43;;;;;;;;;;5069155;28;20456;-72
2022/05/19 14:14:38;;;;;;;9.20;2.80;;;;;;;;;;5042934;28;20481;-72
2022/05/19 14:17:10;;;;;;;3.40;2.60;;;;;;;;;;5065298;28;20464;-72
2022/05/19 14:19:42;;;;;;;5.53;2.93;;;;;;;;;;5074061;28;20452;-73
2022/05/19 14:22:13;;;;;;;4.73;2.57;;;;;;;;;;5065650;28;20472;-73
2022/05/19 14:24:42;;;;;;;3.63;2.60;;;;;;;;;;5062014;28;20457;-72
2022/05/19 14:27:10;;;;;;;7.87;2.50;;;;;;;;;;5067325;28;20764;-73
2022/05/19 14:29:43;;;;;;;3.67;2.80;;;;;;;;;;5068953;28;20987;-74
2022/05/19 14:32:25;;;;;;;5.13;2.50;;;;;;;;;;5065508;28;20456;-73
2022/05/19 14:34:52;;;;;;;4.53;2.97;;;;;;;;;;5066555;28;21562;-72
2022/05/19 14:37:22;;;;;;;5.97;3.10;;;;;;;;;;5065875;28;20510;-72
2022/05/19 14:39:52;;;;;;;2.70;2.13;;;;;;;;;;5063428;28;20456;-72
2022/05/19 14:45:17;;;;;;;3.97;2.67;;;;;;;;;;5059479;28;20475;-72
2022/05/19 14:47:52;;;;;;;4.93;2.77;;;;;;;;;;5059204;28;20445;-73
2022/05/19 14:50:25;;;;;;;3.60;2.77;;;;;;;;;;5060459;28;20524;-73
2022/05/19 14:52:59;;;;;;;4.90;2.80;;;;;;;;;;5068227;28;20770;-71
2022/05/19 14:55:28;;;;;;;6.53;3.47;;;;;;;;;;5064910;28;20531;-72
2022/05/19 14:57:58;;;;;;;3.60;2.40;;;;;;;;;;5068522;28;20460;-73
2022/05/19 15:00:29;;;;;;;4.30;2.37;;;;;;;;;;5056429;28;20465;-73
2022/05/19 15:02:57;;;;;;;5.20;2.30;;;;;;;;;;5062059;28;20542;-72
2022/05/19 15:05:27;;;;;;;4.00;2.17;;;;;;;;;;5069847;28;20450;-73
2022/05/19 15:07:59;;;;;;;5.33;2.73;;;;;;;;;;5066304;28;20513;-72
2022/05/19 15:10:29;;;;;;;3.37;2.37;;;;;;;;;;5072922;28;20507;-71
2022/05/19 15:12:58;;;;;;;2.67;2.27;;;;;;;;;;5070156;28;20537;-71
2022/05/19 15:15:31;;;;;;;4.87;2.90;;;;;;;;;;5059935;28;20453;-71
2022/05/19 15:18:01;;;;;;;5.37;2.90;;;;;;;;;;5066463;28;20523;-72
2022/05/19 15:20:30;;;;;;;3.20;2.13;;;;;;;;;;5057367;28;20798;-71
2022/05/19 15:22:59;;;;;;;5.03;1.97;;;;;;;;;;5057292;28;20576;-71
2022/05/19 15:25:28;;;;;;;5.93;3.50;;;;;;;;;;5069992;28;20524;-71
2022/05/19 15:27:59;;;;;;;3.40;2.50;;;;;;;;;;5064014;28;20483;-70
2022/05/19 15:30:37;;;;;;;3.37;2.10;;;;;;;;;;5064773;28;20453;-70
2022/05/19 15:33:06;;;;;;;3.50;3.17;;;;;;;;;;5057578;28;20536;-71
2022/05/19 15:35:39;;;;;;;3.90;3.30;;;;;;;;;;5055199;28;20472;-72
2022/05/19 15:38:13;;;;;;;3.20;1.80;;;;;;;;;;5060750;28;20459;-71
2022/05/19 15:40:42;;;;;;;5.73;3.03;;;;;;;;;;5057818;28;20485;-70
2022/05/19 15:43:12;;;;;;;4.50;2.57;;;;;;;;;;5055786;28;20481;-72
2022/05/19 15:45:42;;;;;;;3.70;2.97;;;;;;;;;;5059164;28;20891;-72
2022/05/19 15:48:09;;;;;;;5.63;3.10;;;;;;;;;;5054201;28;20573;-72
2022/05/19 15:50:46;;;;;;;3.03;2.20;;;;;;;;;;5058748;28;20463;-71